Constantin S — V2BM7 — position and weather

sailwx.info

Track history (hours):
 
Tides and Currents Weather Stations Pressure Air Temp Water Temp Dewpoint Dewpoint Depression Visibility Wind Speed Wind Dir Waves Ship Positions

Constantin S

Last reported at 2018-Jun-07 08:20 UTC. Time now 2018-Jun-21 16:28 UTC.
Position N 29°44' W 095°13'.
Warning: this ship's position is 14 days out of date.

Length 200 m; draft 7.2 m.

Type: Cargo ship. MMSI: 304872000.

Date/timePositionNaut miles runAvg speedWind from/ knotsBaromVisibWave heightAir tempDewpointWater temp
2018-Jun-07 08:20N 29°44' W 095°13'0 0.0
2018-Jun-07 07:59N 29°44' W 095°13'0 0.0
2018-Jun-07 07:26N 29°44' W 095°13'0 0.0
2018-Jun-07 06:59N 29°44' W 095°13'0 0.0
2018-Jun-07 06:26N 29°44' W 095°13'0 0.0
2018-Jun-07 05:59N 29°44' W 095°13'0 0.0
2018-Jun-07 05:26N 29°44' W 095°13'0 0.0
2018-Jun-07 04:56N 29°44' W 095°13'0 0.0
2018-Jun-07 04:26N 29°44' W 095°13'0 0.0
2018-Jun-07 03:35N 29°44' W 095°13'0 0.0
2018-Jun-07 03:29N 29°44' W 095°13'0 0.0
2018-Jun-07 02:59N 29°44' W 095°13'0 0.0
2018-Jun-07 02:26N 29°44' W 095°13'5 0.7
2018-Jun-06 19:29N 29°44' W 095°07'1 2.0
2018-Jun-06 18:57N 29°45' W 095°07'0 0.0
2018-Jun-06 18:30N 29°45' W 095°07'0 0.0
2018-Jun-06 18:01N 29°45' W 095°07'0 0.0
2018-Jun-06 17:28N 29°45' W 095°07'0 0.0
2018-Jun-06 16:30N 29°45' W 095°07'0 0.0
2018-Jun-06 16:01N 29°45' W 095°07'0 0.0
2018-Jun-06 13:27N 29°45' W 095°07'0 0.0
2018-Jun-06 13:00N 29°45' W 095°07'0 0.0
2018-Jun-06 11:46N 29°45' W 095°07'0 0.0
2018-Jun-06 11:21N 29°45' W 095°07'0 0.0
2018-Jun-06 10:09N 29°45' W 095°07'0 0.0
2018-Jun-06 08:51N 29°45' W 095°07'0 0.0
2018-Jun-06 07:49N 29°45' W 095°07'0 0.0
2018-Jun-06 06:51N 29°45' W 095°07'0 0.0
2018-Jun-06 06:25N 29°45' W 095°07'0 0.0
2018-Jun-06 05:57N 29°45' W 095°07'0 0.0
2018-Jun-06 05:03N 29°45' W 095°07'0 0.0
2018-Jun-06 04:57N 29°45' W 095°07'0 0.0
2018-Jun-06 04:24N 29°45' W 095°07'0 0.0
2018-Jun-06 03:57N 29°45' W 095°07'0 0.0
2018-Jun-06 03:16N 29°45' W 095°07'0 0.0
2018-Jun-06 02:54N 29°45' W 095°07'0 0.0
2018-Jun-06 02:28N 29°45' W 095°07'0 0.0
2018-Jun-06 01:55N 29°45' W 095°07'0 0.0
2018-Jun-06 01:27N 29°45' W 095°07'0 0.0
2018-Jun-06 00:46N 29°45' W 095°07'0 0.0
2018-Jun-05 23:31N 29°45' W 095°07'0 0.0
2018-Jun-05 23:00N 29°45' W 095°07'0 0.0
2018-Jun-05 22:27N 29°45' W 095°07'0 0.0
2018-Jun-05 21:55N 29°45' W 095°07'0 0.0
2018-Jun-05 21:30N 29°45' W 095°07'0 0.0
2018-Jun-05 21:00N 29°45' W 095°07'0 0.0
2018-Jun-05 20:22N 29°45' W 095°07'0 0.0
2018-Jun-05 19:55N 29°45' W 095°07'0 0.0
2018-Jun-05 19:27N 29°45' W 095°07'0 0.0
2018-Jun-05 19:00N 29°45' W 095°07'0 0.0
2018-Jun-05 18:31N 29°45' W 095°07'0 0.0
2018-Jun-05 17:58N 29°45' W 095°07'0 0.0
2018-Jun-05 17:27N 29°45' W 095°07'0 0.0
2018-Jun-05 16:57N 29°45' W 095°07'0 0.0
2018-Jun-05 16:30N 29°45' W 095°07'0 0.0
2018-Jun-05 15:00N 29°45' W 095°07'0 0.0
2018-Jun-05 14:22N 29°45' W 095°07'0 0.1
2018-Jun-05 14:00N 29°45' W 095°07'0 0.0
2018-Jun-05 13:27N 29°45' W 095°07'0 0.0
2018-Jun-05 12:51N 29°45' W 095°07'0 0.0
2018-Jun-05 12:21N 29°45' W 095°07'0 0.0
2018-Jun-05 11:48N 29°45' W 095°07'0 0.0
2018-Jun-05 11:22N 29°45' W 095°07'1 1.5
2018-Jun-05 10:55N 29°45' W 095°06'3 4.9
2018-Jun-05 10:18N 29°44' W 095°03'2 7.4
2018-Jun-05 10:00N 29°42' W 095°01'611.0
2018-Jun-05 09:28N 29°37' W 094°57'613.0
2018-Jun-05 09:00N 29°32' W 094°54'713.4
2018-Jun-05 08:30N 29°26' W 094°50'713.0
2018-Jun-05 08:00N 29°21' W 094°46'2 3.6
2018-Jun-05 07:28N 29°21' W 094°44'0 0.0
2018-Jun-05 06:58N 29°21' W 094°44'0 0.0
2018-Jun-05 06:28N 29°21' W 094°44'0 0.0
2018-Jun-05 05:58N 29°21' W 094°44'0 0.3
2018-Jun-05 05:30N 29°21' W 094°44'4 7.4
2018-Jun-05 05:00N 29°22' W 094°48'3 4.9
2018-Jun-05 04:28N 29°25' W 094°49'0 0.2
2018-Jun-05 03:58N 29°25' W 094°49'0 0.1
2018-Jun-05 03:30N 29°25' W 094°49'2 3.4
2018-Jun-05 03:00N 29°23' W 094°49'611.3
2018-Jun-05 02:30N 29°21' W 094°43'612.3
2018-Jun-05 02:00N 29°18' W 094°36'3 5.0
2018-Jun-05 01:30N 29°19' W 094°34'0 0.1
2018-Jun-05 00:58N 29°19' W 094°34'0 0.0
2018-Jun-05 00:22N 29°19' W 094°34'0 0.0
2018-Jun-04 23:58N 29°19' W 094°34'0 0.0
2018-Jun-04 23:28N 29°19' W 094°34'0 0.0
2018-Jun-04 22:58N 29°19' W 094°34'0 0.0
2018-Jun-04 22:25N 29°19' W 094°34'0 0.0
2018-Jun-04 21:58N 29°19' W 094°34'0 0.0
2018-Jun-04 21:28N 29°19' W 094°34'0 0.0
2018-Jun-04 20:58N 29°19' W 094°34'0 0.0
2018-Jun-04 20:25N 29°19' W 094°34'0 0.0
2018-Jun-04 19:55N 29°19' W 094°34'0 0.0
2018-Jun-04 19:28N 29°19' W 094°34'0 0.0
2018-Jun-04 18:52N 29°19' W 094°34'0 0.1
2018-Jun-04 18:28N 29°19' W 094°34'0 0.0
2018-Jun-04 17:58N 29°19' W 094°34'0 0.0
2018-Jun-04 17:28N 29°19' W 094°34'0 0.0
2018-Jun-04 16:55N 29°19' W 094°34'0 0.1
2018-Jun-04 16:25N 29°19' W 094°34'0 0.0
2018-Jun-04 15:58N 29°19' W 094°34'0 0.1
2018-Jun-04 15:28N 29°19' W 094°34'0 0.0
2018-Jun-04 14:58N 29°19' W 094°34'0 0.0
2018-Jun-04 14:28N 29°19' W 094°34'0 0.0
2018-Jun-04 13:58N 29°19' W 094°34'0 0.0
2018-Jun-04 13:28N 29°19' W 094°34'0 0.0
2018-Jun-04 12:58N 29°19' W 094°34'0 0.1
2018-Jun-04 12:28N 29°19' W 094°34'0 0.0
2018-Jun-04 11:58N 29°19' W 094°34'0 0.0
2018-Jun-04 11:28N 29°19' W 094°34'0 0.0
2018-Jun-04 10:58N 29°19' W 094°34'0 0.0
2018-Jun-04 10:25N 29°19' W 094°34'0 0.0
2018-Jun-04 09:55N 29°19' W 094°34'0 0.1
2018-Jun-04 09:10N 29°19' W 094°34'0 0.1
2018-Jun-04 08:58N 29°19' W 094°34'0 0.1
2018-Jun-04 08:28N 29°19' W 094°34'0 0.2
2018-Jun-04 07:58N 29°19' W 094°34'0 0.2
2018-Jun-04 06:58N 29°19' W 094°34'0 0.3
2018-Jun-04 06:25N 29°19' W 094°34'0 0.1
2018-Jun-04 05:52N 29°20' W 094°34'0 0.0
2018-Jun-04 05:28N 29°20' W 094°34'0 0.0
2018-Jun-04 04:58N 29°20' W 094°34'0 0.0
2018-Jun-04 04:22N 29°19' W 094°34'0 0.1
2018-Jun-04 03:58N 29°20' W 094°34'0 0.1
2018-Jun-04 03:13N 29°19' W 094°34'0 0.1
2018-Jun-04 02:55N 29°20' W 094°34'0 0.1
2018-Jun-04 02:28N 29°20' W 094°34'0 0.0
2018-Jun-04 01:55N 29°20' W 094°34'0 0.0
2018-Jun-04 01:28N 29°20' W 094°34'0 0.0
2018-Jun-04 00:58N 29°20' W 094°34'0 0.0
2018-Jun-04 00:28N 29°20' W 094°34'0 0.0
2018-Jun-03 23:58N 29°20' W 094°34'0 0.0
2018-Jun-03 23:25N 29°20' W 094°34'0 0.0
2018-Jun-03 22:55N 29°20' W 094°34'0 0.1
2018-Jun-03 22:28N 29°20' W 094°34'0 0.0
2018-Jun-03 21:58N 29°20' W 094°34'0 0.0
2018-Jun-03 21:28N 29°20' W 094°34'0 0.0
2018-Jun-03 20:58N 29°20' W 094°34'0 0.0
2018-Jun-03 20:25N 29°20' W 094°34'0 0.0
2018-Jun-03 19:58N 29°20' W 094°34'0 0.0
2018-Jun-03 19:25N 29°20' W 094°34'0 0.0
2018-Jun-03 18:55N 29°20' W 094°34'0 0.0
2018-Jun-03 18:25N 29°20' W 094°34'0 0.0
2018-Jun-03 17:58N 29°20' W 094°34'0 0.0
2018-Jun-03 17:28N 29°20' W 094°34'0 0.0
2018-Jun-03 16:55N 29°19' W 094°34'0 0.0
2018-Jun-03 16:25N 29°19' W 094°34'0 0.0
2018-Jun-03 14:10N 29°19' W 094°34'0 0.0
2018-Jun-03 13:58N 29°19' W 094°34'0 0.0
2018-Jun-03 13:28N 29°19' W 094°34'0 0.0
2018-Jun-03 12:43N 29°19' W 094°34'0 0.0
2018-Jun-03 12:22N 29°19' W 094°34'0 0.0
2018-Jun-03 11:37N 29°19' W 094°34'0 0.2
2018-Jun-03 11:28N 29°20' W 094°34'0 0.0
2018-Jun-03 10:58N 29°20' W 094°34'0 0.0
2018-Jun-03 10:28N 29°20' W 094°34'0 0.0
2018-Jun-03 09:58N 29°20' W 094°34'0 0.0
2018-Jun-03 09:28N 29°20' W 094°34'0 0.0
2018-Jun-03 08:55N 29°20' W 094°34'0 0.0
2018-Jun-03 08:28N 29°20' W 094°34'0 0.0
2018-Jun-03 07:49N 29°20' W 094°34'0 0.0
2018-Jun-03 07:28N 29°20' W 094°34'0 0.0
2018-Jun-03 06:58N 29°20' W 094°34'0 0.1
2018-Jun-03 06:25N 29°20' W 094°34'0 0.0
2018-Jun-03 05:58N 29°20' W 094°34'0 0.0
2018-Jun-03 05:28N 29°20' W 094°34'0 0.0
2018-Jun-03 04:55N 29°20' W 094°34'0 0.0
2018-Jun-03 04:22N 29°20' W 094°34'0 0.0
2018-Jun-03 03:52N 29°20' W 094°34'0 0.0
2018-Jun-03 03:25N 29°20' W 094°34'0 0.0
2018-Jun-03 02:58N 29°20' W 094°34'0 0.0
2018-Jun-03 02:28N 29°20' W 094°34'0 0.1
2018-Jun-03 01:58N 29°20' W 094°34'0 0.0
2018-Jun-03 01:28N 29°20' W 094°34'0 0.0
2018-Jun-03 00:58N 29°20' W 094°34'0 0.1
2018-Jun-03 00:28N 29°20' W 094°34'0 0.0
2018-Jun-02 23:58N 29°20' W 094°34'0 0.0
2018-Jun-02 23:28N 29°20' W 094°34'0 0.0
2018-Jun-02 22:58N 29°20' W 094°34'0 0.1
2018-Jun-02 22:28N 29°20' W 094°34'0 0.0
2018-Jun-02 21:58N 29°20' W 094°34'0 0.0
2018-Jun-02 21:28N 29°20' W 094°34'0 0.0
2018-Jun-02 20:58N 29°20' W 094°34'0 0.0
2018-Jun-02 20:19N 29°20' W 094°34'0 0.1
2018-Jun-02 19:58N 29°20' W 094°34'0 0.0
2018-Jun-02 00:32N 29°20' W 094°34'0 3.2
2018-Jun-02 00:30N 29°20' W 094°34'3 6.3
2018-Jun-02 00:00N 29°17' W 094°32'712.1
2018-Jun-01 23:26N 29°12' W 094°27'612.1
2018-Jun-01 22:54N 29°06' W 094°25'612.8
2018-Jun-01 22:28N 29°00' W 094°25'612.7
2018-Jun-01 21:59N 28°54' W 094°24'612.7
2018-Jun-01 21:29N 28°48' W 094°24'712.8
2018-Jun-01 20:57N 28°41' W 094°25'612.6
2018-Jun-01 20:29N 28°35' W 094°24'712.5
2018-Jun-01 19:55N 28°28' W 094°24'512.8
2018-Jun-01 19:30N 28°23' W 094°24'1412.5
2018-Jun-01 18:23N 28°09' W 094°25'512.6
2018-Jun-01 18:00N 28°04' W 094°25'1013.1
2018-Jun-01 17:15N 27°54' W 094°25'613.1
2018-Jun-01 16:48N 27°48' W 094°25'  
Track history (hours):
 
Tides and Currents Weather Stations Pressure Air Temp Water Temp Dewpoint Dewpoint Depression Visibility Wind Speed Wind Dir Waves Ship Positions

Constantin S

Last reported at 2018-Jun-07 08:20 UTC. Time now 2018-Jun-21 16:28 UTC.
Position N 29°44' W 095°13'.
Warning: this ship's position is 14 days out of date.

Length 200 m; draft 7.2 m.

Type: Cargo ship. MMSI: 304872000.

Date/timePositionNaut miles runAvg speedWind from/ knotsBaromVisibWave heightAir tempDewpointWater temp
2018-Jun-07 08:20N 29°44' W 095°13'0 0.0
2018-Jun-07 07:59N 29°44' W 095°13'0 0.0
2018-Jun-07 07:26N 29°44' W 095°13'0 0.0
2018-Jun-07 06:59N 29°44' W 095°13'0 0.0
2018-Jun-07 06:26N 29°44' W 095°13'0 0.0
2018-Jun-07 05:59N 29°44' W 095°13'0 0.0
2018-Jun-07 05:26N 29°44' W 095°13'0 0.0
2018-Jun-07 04:56N 29°44' W 095°13'0 0.0
2018-Jun-07 04:26N 29°44' W 095°13'0 0.0
2018-Jun-07 03:35N 29°44' W 095°13'0 0.0
2018-Jun-07 03:29N 29°44' W 095°13'0 0.0
2018-Jun-07 02:59N 29°44' W 095°13'0 0.0
2018-Jun-07 02:26N 29°44' W 095°13'5 0.7
2018-Jun-06 19:29N 29°44' W 095°07'1 2.0
2018-Jun-06 18:57N 29°45' W 095°07'0 0.0
2018-Jun-06 18:30N 29°45' W 095°07'0 0.0
2018-Jun-06 18:01N 29°45' W 095°07'0 0.0
2018-Jun-06 17:28N 29°45' W 095°07'0 0.0
2018-Jun-06 16:30N 29°45' W 095°07'0 0.0
2018-Jun-06 16:01N 29°45' W 095°07'0 0.0
2018-Jun-06 13:27N 29°45' W 095°07'0 0.0
2018-Jun-06 13:00N 29°45' W 095°07'0 0.0
2018-Jun-06 11:46N 29°45' W 095°07'0 0.0
2018-Jun-06 11:21N 29°45' W 095°07'0 0.0
2018-Jun-06 10:09N 29°45' W 095°07'0 0.0
2018-Jun-06 08:51N 29°45' W 095°07'0 0.0
2018-Jun-06 07:49N 29°45' W 095°07'0 0.0
2018-Jun-06 06:51N 29°45' W 095°07'0 0.0
2018-Jun-06 06:25N 29°45' W 095°07'0 0.0
2018-Jun-06 05:57N 29°45' W 095°07'0 0.0
2018-Jun-06 05:03N 29°45' W 095°07'0 0.0
2018-Jun-06 04:57N 29°45' W 095°07'0 0.0
2018-Jun-06 04:24N 29°45' W 095°07'0 0.0
2018-Jun-06 03:57N 29°45' W 095°07'0 0.0
2018-Jun-06 03:16N 29°45' W 095°07'0 0.0
2018-Jun-06 02:54N 29°45' W 095°07'0 0.0
2018-Jun-06 02:28N 29°45' W 095°07'0 0.0
2018-Jun-06 01:55N 29°45' W 095°07'0 0.0
2018-Jun-06 01:27N 29°45' W 095°07'0 0.0
2018-Jun-06 00:46N 29°45' W 095°07'0 0.0
2018-Jun-05 23:31N 29°45' W 095°07'0 0.0
2018-Jun-05 23:00N 29°45' W 095°07'0 0.0
2018-Jun-05 22:27N 29°45' W 095°07'0 0.0
2018-Jun-05 21:55N 29°45' W 095°07'0 0.0
2018-Jun-05 21:30N 29°45' W 095°07'0 0.0
2018-Jun-05 21:00N 29°45' W 095°07'0 0.0
2018-Jun-05 20:22N 29°45' W 095°07'0 0.0
2018-Jun-05 19:55N 29°45' W 095°07'0 0.0
2018-Jun-05 19:27N 29°45' W 095°07'0 0.0
2018-Jun-05 19:00N 29°45' W 095°07'0 0.0
2018-Jun-05 18:31N 29°45' W 095°07'0 0.0
2018-Jun-05 17:58N 29°45' W 095°07'0 0.0
2018-Jun-05 17:27N 29°45' W 095°07'0 0.0
2018-Jun-05 16:57N 29°45' W 095°07'0 0.0
2018-Jun-05 16:30N 29°45' W 095°07'0 0.0
2018-Jun-05 15:00N 29°45' W 095°07'0 0.0
2018-Jun-05 14:22N 29°45' W 095°07'0 0.1
2018-Jun-05 14:00N 29°45' W 095°07'0 0.0
2018-Jun-05 13:27N 29°45' W 095°07'0 0.0
2018-Jun-05 12:51N 29°45' W 095°07'0 0.0
2018-Jun-05 12:21N 29°45' W 095°07'0 0.0
2018-Jun-05 11:48N 29°45' W 095°07'0 0.0
2018-Jun-05 11:22N 29°45' W 095°07'1 1.5
2018-Jun-05 10:55N 29°45' W 095°06'3 4.9
2018-Jun-05 10:18N 29°44' W 095°03'2 7.4
2018-Jun-05 10:00N 29°42' W 095°01'611.0
2018-Jun-05 09:28N 29°37' W 094°57'613.0
2018-Jun-05 09:00N 29°32' W 094°54'713.4
2018-Jun-05 08:30N 29°26' W 094°50'713.0
2018-Jun-05 08:00N 29°21' W 094°46'2 3.6
2018-Jun-05 07:28N 29°21' W 094°44'0 0.0
2018-Jun-05 06:58N 29°21' W 094°44'0 0.0
2018-Jun-05 06:28N 29°21' W 094°44'0 0.0
2018-Jun-05 05:58N 29°21' W 094°44'0 0.3
2018-Jun-05 05:30N 29°21' W 094°44'4 7.4
2018-Jun-05 05:00N 29°22' W 094°48'3 4.9
2018-Jun-05 04:28N 29°25' W 094°49'0 0.2
2018-Jun-05 03:58N 29°25' W 094°49'0 0.1
2018-Jun-05 03:30N 29°25' W 094°49'2 3.4
2018-Jun-05 03:00N 29°23' W 094°49'611.3
2018-Jun-05 02:30N 29°21' W 094°43'612.3
2018-Jun-05 02:00N 29°18' W 094°36'3 5.0
2018-Jun-05 01:30N 29°19' W 094°34'0 0.1
2018-Jun-05 00:58N 29°19' W 094°34'0 0.0
2018-Jun-05 00:22N 29°19' W 094°34'0 0.0
2018-Jun-04 23:58N 29°19' W 094°34'0 0.0
2018-Jun-04 23:28N 29°19' W 094°34'0 0.0
2018-Jun-04 22:58N 29°19' W 094°34'0 0.0
2018-Jun-04 22:25N 29°19' W 094°34'0 0.0
2018-Jun-04 21:58N 29°19' W 094°34'0 0.0
2018-Jun-04 21:28N 29°19' W 094°34'0 0.0
2018-Jun-04 20:58N 29°19' W 094°34'0 0.0
2018-Jun-04 20:25N 29°19' W 094°34'0 0.0
2018-Jun-04 19:55N 29°19' W 094°34'0 0.0
2018-Jun-04 19:28N 29°19' W 094°34'0 0.0
2018-Jun-04 18:52N 29°19' W 094°34'0 0.1
2018-Jun-04 18:28N 29°19' W 094°34'0 0.0
2018-Jun-04 17:58N 29°19' W 094°34'0 0.0
2018-Jun-04 17:28N 29°19' W 094°34'0 0.0
2018-Jun-04 16:55N 29°19' W 094°34'0 0.1
2018-Jun-04 16:25N 29°19' W 094°34'0 0.0
2018-Jun-04 15:58N 29°19' W 094°34'0 0.1
2018-Jun-04 15:28N 29°19' W 094°34'0 0.0
2018-Jun-04 14:58N 29°19' W 094°34'0 0.0
2018-Jun-04 14:28N 29°19' W 094°34'0 0.0
2018-Jun-04 13:58N 29°19' W 094°34'0 0.0
2018-Jun-04 13:28N 29°19' W 094°34'0 0.0
2018-Jun-04 12:58N 29°19' W 094°34'0 0.1
2018-Jun-04 12:28N 29°19' W 094°34'0 0.0
2018-Jun-04 11:58N 29°19' W 094°34'0 0.0
2018-Jun-04 11:28N 29°19' W 094°34'0 0.0
2018-Jun-04 10:58N 29°19' W 094°34'0 0.0
2018-Jun-04 10:25N 29°19' W 094°34'0 0.0
2018-Jun-04 09:55N 29°19' W 094°34'0 0.1
2018-Jun-04 09:10N 29°19' W 094°34'0 0.1
2018-Jun-04 08:58N 29°19' W 094°34'0 0.1
2018-Jun-04 08:28N 29°19' W 094°34'0 0.2
2018-Jun-04 07:58N 29°19' W 094°34'0 0.2
2018-Jun-04 06:58N 29°19' W 094°34'0 0.3
2018-Jun-04 06:25N 29°19' W 094°34'0 0.1
2018-Jun-04 05:52N 29°20' W 094°34'0 0.0
2018-Jun-04 05:28N 29°20' W 094°34'0 0.0
2018-Jun-04 04:58N 29°20' W 094°34'0 0.0
2018-Jun-04 04:22N 29°19' W 094°34'0 0.1
2018-Jun-04 03:58N 29°20' W 094°34'0 0.1
2018-Jun-04 03:13N 29°19' W 094°34'0 0.1
2018-Jun-04 02:55N 29°20' W 094°34'0 0.1
2018-Jun-04 02:28N 29°20' W 094°34'0 0.0
2018-Jun-04 01:55N 29°20' W 094°34'0 0.0
2018-Jun-04 01:28N 29°20' W 094°34'0 0.0
2018-Jun-04 00:58N 29°20' W 094°34'0 0.0
2018-Jun-04 00:28N 29°20' W 094°34'0 0.0
2018-Jun-03 23:58N 29°20' W 094°34'0 0.0
2018-Jun-03 23:25N 29°20' W 094°34'0 0.0
2018-Jun-03 22:55N 29°20' W 094°34'0 0.1
2018-Jun-03 22:28N 29°20' W 094°34'0 0.0
2018-Jun-03 21:58N 29°20' W 094°34'0 0.0
2018-Jun-03 21:28N 29°20' W 094°34'0 0.0
2018-Jun-03 20:58N 29°20' W 094°34'0 0.0
2018-Jun-03 20:25N 29°20' W 094°34'0 0.0
2018-Jun-03 19:58N 29°20' W 094°34'0 0.0
2018-Jun-03 19:25N 29°20' W 094°34'0 0.0
2018-Jun-03 18:55N 29°20' W 094°34'0 0.0
2018-Jun-03 18:25N 29°20' W 094°34'0 0.0
2018-Jun-03 17:58N 29°20' W 094°34'0 0.0
2018-Jun-03 17:28N 29°20' W 094°34'0 0.0
2018-Jun-03 16:55N 29°19' W 094°34'0 0.0
2018-Jun-03 16:25N 29°19' W 094°34'0 0.0
2018-Jun-03 14:10N 29°19' W 094°34'0 0.0
2018-Jun-03 13:58N 29°19' W 094°34'0 0.0
2018-Jun-03 13:28N 29°19' W 094°34'0 0.0
2018-Jun-03 12:43N 29°19' W 094°34'0 0.0
2018-Jun-03 12:22N 29°19' W 094°34'0 0.0
2018-Jun-03 11:37N 29°19' W 094°34'0 0.2
2018-Jun-03 11:28N 29°20' W 094°34'0 0.0
2018-Jun-03 10:58N 29°20' W 094°34'0 0.0
2018-Jun-03 10:28N 29°20' W 094°34'0 0.0
2018-Jun-03 09:58N 29°20' W 094°34'0 0.0
2018-Jun-03 09:28N 29°20' W 094°34'0 0.0
2018-Jun-03 08:55N 29°20' W 094°34'0 0.0
2018-Jun-03 08:28N 29°20' W 094°34'0 0.0
2018-Jun-03 07:49N 29°20' W 094°34'0 0.0
2018-Jun-03 07:28N 29°20' W 094°34'0 0.0
2018-Jun-03 06:58N 29°20' W 094°34'0 0.1
2018-Jun-03 06:25N 29°20' W 094°34'0 0.0
2018-Jun-03 05:58N 29°20' W 094°34'0 0.0
2018-Jun-03 05:28N 29°20' W 094°34'0 0.0
2018-Jun-03 04:55N 29°20' W 094°34'0 0.0
2018-Jun-03 04:22N 29°20' W 094°34'0 0.0
2018-Jun-03 03:52N 29°20' W 094°34'0 0.0
2018-Jun-03 03:25N 29°20' W 094°34'0 0.0
2018-Jun-03 02:58N 29°20' W 094°34'0 0.0
2018-Jun-03 02:28N 29°20' W 094°34'0 0.1
2018-Jun-03 01:58N 29°20' W 094°34'0 0.0
2018-Jun-03 01:28N 29°20' W 094°34'0 0.0
2018-Jun-03 00:58N 29°20' W 094°34'0 0.1
2018-Jun-03 00:28N 29°20' W 094°34'0 0.0
2018-Jun-02 23:58N 29°20' W 094°34'0 0.0
2018-Jun-02 23:28N 29°20' W 094°34'0 0.0
2018-Jun-02 22:58N 29°20' W 094°34'0 0.1
2018-Jun-02 22:28N 29°20' W 094°34'0 0.0
2018-Jun-02 21:58N 29°20' W 094°34'0 0.0
2018-Jun-02 21:28N 29°20' W 094°34'0 0.0
2018-Jun-02 20:58N 29°20' W 094°34'0 0.0
2018-Jun-02 20:19N 29°20' W 094°34'0 0.1
2018-Jun-02 19:58N 29°20' W 094°34'0 0.0
2018-Jun-02 00:32N 29°20' W 094°34'0 3.2
2018-Jun-02 00:30N 29°20' W 094°34'3 6.3
2018-Jun-02 00:00N 29°17' W 094°32'712.1
2018-Jun-01 23:26N 29°12' W 094°27'612.1
2018-Jun-01 22:54N 29°06' W 094°25'612.8
2018-Jun-01 22:28N 29°00' W 094°25'612.7
2018-Jun-01 21:59N 28°54' W 094°24'612.7
2018-Jun-01 21:29N 28°48' W 094°24'712.8
2018-Jun-01 20:57N 28°41' W 094°25'612.6
2018-Jun-01 20:29N 28°35' W 094°24'712.5
2018-Jun-01 19:55N 28°28' W 094°24'512.8
2018-Jun-01 19:30N 28°23' W 094°24'1412.5
2018-Jun-01 18:23N 28°09' W 094°25'512.6
2018-Jun-01 18:00N 28°04' W 094°25'1013.1
2018-Jun-01 17:15N 27°54' W 094°25'613.1
2018-Jun-01 16:48N 27°48' W 094°25'  

Dump ship's entire track history